Pagina principală
METAR-TAF:

METAR-TAF

Aeroporturi :

Tahlequah, Oklahoma, Statele Unite ale Americii

Latitudine: 35-55-44N, longitudine: 095-00-16W, elevație: 266 m

Observații meteo curente

Raportul a fost făcut în urmă cu 30 de minute, la 22:55 UTC
Vânt 7 kt de la Sud/Sud-vest
Temperatură 33°C
Umiditate 49%
Presiune 1015 hPa
Vizibilitate: 16.1 km
Cer senin

METAR: KTQH 222255Z AUTO 20007KT 10SM CLR 33/21 A2996 RMK AO2

Ora: 18:25 (23:25 UTC)


TAF: lipsă

Observații și prognoze meteo pentru peste 4.000 de aeroporturi (rapoarte METAR și TAF).

Stațiile disponibile sunt reprezentate pe hartă prin puncte galbene și roșii.

Țineți indicatorul mouse-ului pe punctul dorit pentru a vedea denumirea stației.

Apoi, faceți clic pentru a vedea observațiile și prognozele meteorologice.

Pentru a schimba harta: Pentru mărire, faceți clic pe butoanele verzi cu cruce neagră; pentru micșorare, pe butonul verde cu o liniuță; pentru hărți învecinate, pe săgețile verzi.


METAR-TAF: